Time;durP1;ratioP1;P1;durP2;ratioP2;P2;SDS_P1;SDS_P2;PMS_P1;PMS_P2;Temp;Humidity;BMP_temperature;BMP_pressure;BME280_temperature;BME280_humidity;BME280_pressure;Samples;Min_cycle;Max_cycle;Signal;HPM_P1;HPM_P2
2023/05/01 00:00:47;;;;;;;15.68;6.55;;;11.10;99.90;;;;;;5035279;28;20492;-76
2023/05/01 00:03:13;;;;;;;13.63;6.90;;;11.00;99.90;;;;;;5036051;28;20367;-76
2023/05/01 00:05:39;;;;;;;15.55;6.63;;;11.00;99.90;;;;;;5035046;28;20044;-72
2023/05/01 00:08:04;;;;;;;15.25;7.03;;;11.00;99.90;;;;;;5035118;28;20031;-73
2023/05/01 00:10:30;;;;;;;14.95;6.65;;;10.90;99.90;;;;;;5034770;28;20065;-75
2023/05/01 00:12:55;;;;;;;17.50;6.88;;;10.90;99.90;;;;;;5034549;28;20073;-75
2023/05/01 00:15:21;;;;;;;17.27;7.22;;;10.80;99.90;;;;;;5034424;28;20017;-74
2023/05/01 00:17:47;;;;;;;19.98;7.78;;;10.80;99.90;;;;;;5041268;28;20108;-73
2023/05/01 00:20:13;;;;;;;15.48;7.38;;;10.80;99.90;;;;;;5042853;28;20330;-72
2023/05/01 00:22:38;;;;;;;16.35;6.00;;;10.80;99.90;;;;;;5048254;28;20120;-71
2023/05/01 00:25:05;;;;;;;13.60;6.07;;;10.90;99.90;;;;;;5036427;28;20025;-72
2023/05/01 00:27:30;;;;;;;10.30;5.25;;;10.90;99.90;;;;;;5049565;28;20480;-72
2023/05/01 00:29:56;;;;;;;10.23;4.40;;;10.90;99.90;;;;;;5053738;28;20016;-72
2023/05/01 00:32:21;;;;;;;9.18;3.97;;;11.00;99.90;;;;;;5041863;28;20079;-72
2023/05/01 00:34:48;;;;;;;8.80;4.22;;;11.10;99.90;;;;;;5040289;28;20398;-72
2023/05/01 00:37:14;;;;;;;9.60;3.88;;;11.10;99.90;;;;;;5043879;28;20022;-73
2023/05/01 00:39:39;;;;;;;8.02;4.05;;;11.10;99.90;;;;;;5044356;28;20377;-75
2023/05/01 00:42:05;;;;;;;9.50;4.15;;;11.20;99.90;;;;;;5043753;28;20428;-72
2023/05/01 00:44:31;;;;;;;10.85;4.00;;;11.20;99.90;;;;;;5046953;28;20025;-72
2023/05/01 00:46:59;;;;;;;14.05;3.70;;;11.30;99.90;;;;;;5035584;28;20032;-72
2023/05/01 00:49:25;;;;;;;9.75;3.55;;;11.30;99.90;;;;;;5049248;28;20021;-75
2023/05/01 00:51:53;;;;;;;7.53;3.83;;;11.30;99.90;;;;;;5040971;28;20100;-72
2023/05/01 00:54:21;;;;;;;9.88;3.78;;;11.30;99.90;;;;;;5041039;28;20033;-73
2023/05/01 00:56:48;;;;;;;6.35;3.25;;;11.30;99.90;;;;;;5035893;28;20044;-72
2023/05/01 00:59:14;;;;;;;11.20;3.33;;;11.40;99.90;;;;;;5049262;28;20033;-74
2023/05/01 01:01:42;;;;;;;7.30;3.03;;;11.40;99.90;;;;;;5047538;28;20346;-72
2023/05/01 01:04:08;;;;;;;7.68;3.40;;;11.40;99.90;;;;;;5042816;28;20033;-72
2023/05/01 01:06:41;;;;;;;6.32;3.20;;;11.40;99.90;;;;;;5033569;28;20500;-72
2023/05/01 01:09:46;;;;;;;5.85;3.47;;;11.40;99.90;;;;;;5032719;28;20038;-72
2023/05/01 01:12:46;;;;;;;8.45;3.20;;;11.40;99.90;;;;;;5031548;28;20034;-75
2023/05/01 01:15:22;;;;;;;8.52;3.40;;;11.40;99.90;;;;;;5026327;28;20056;-73
2023/05/01 01:18:13;;;;;;;5.68;3.25;;;11.40;99.90;;;;;;5030823;28;20037;-74
2023/05/01 01:20:56;;;;;;;10.23;3.47;;;11.40;99.90;;;;;;5028887;28;20104;-73
2023/05/01 01:23:55;;;;;;;10.18;3.30;;;11.40;99.90;;;;;;5030666;28;20030;-72
2023/05/01 01:26:32;;;;;;;8.98;4.07;;;11.30;99.90;;;;;;5031933;28;20492;-72
2023/05/01 01:29:28;;;;;;;9.80;3.33;;;11.40;99.90;;;;;;5024834;28;20045;-72
2023/05/01 01:32:22;;;;;;;9.40;3.53;;;11.30;99.90;;;;;;5032113;28;20497;-72
2023/05/01 01:34:54;;;;;;;7.18;3.25;;;11.30;99.90;;;;;;5032249;28;20072;-72
2023/05/01 01:37:29;;;;;;;7.10;3.08;;;11.30;99.90;;;;;;5029455;28;20535;-72
2023/05/01 01:40:27;;;;;;;8.10;3.35;;;11.30;99.90;;;;;;5030277;28;20037;-75
2023/05/01 01:43:01;;;;;;;9.10;3.78;;;11.30;99.90;;;;;;5032017;28;20420;-73
2023/05/01 01:45:40;;;;;;;6.32;3.17;;;11.30;99.90;;;;;;5031874;28;20537;-76
2023/05/01 01:48:10;;;;;;;6.60;3.08;;;11.30;99.90;;;;;;5032010;28;20057;-75
2023/05/01 01:50:37;;;;;;;9.07;3.42;;;11.40;99.90;;;;;;5031324;28;20459;-73
2023/05/01 01:53:05;;;;;;;5.10;3.03;;;11.30;99.90;;;;;;5033023;28;20124;-72
2023/05/01 01:55:34;;;;;;;10.50;3.13;;;11.40;99.90;;;;;;5029150;28;20037;-75
2023/05/01 01:58:02;;;;;;;9.55;3.35;;;11.40;99.90;;;;;;5032134;28;20033;-73
2023/05/01 02:00:29;;;;;;;6.75;3.17;;;11.40;99.90;;;;;;5032285;28;20053;-76
2023/05/01 02:02:57;;;;;;;6.18;3.15;;;11.30;99.90;;;;;;5033206;28;20060;-76
2023/05/01 02:05:25;;;;;;;10.35;3.60;;;11.40;99.90;;;;;;5032973;28;20028;-72
2023/05/01 02:07:51;;;;;;;7.35;3.47;;;11.40;99.90;;;;;;5032497;28;20048;-73
2023/05/01 02:10:18;;;;;;;9.98;3.47;;;11.40;99.90;;;;;;5032469;28;20033;-73
2023/05/01 02:12:47;;;;;;;7.47;3.47;;;11.40;99.90;;;;;;5028848;28;20542;-72
2023/05/01 02:15:15;;;;;;;12.48;3.30;;;11.40;99.90;;;;;;5033925;28;20037;-73
2023/05/01 02:17:41;;;;;;;8.45;3.17;;;11.40;99.90;;;;;;5032057;28;20152;-73
2023/05/01 02:20:09;;;;;;;7.65;3.13;;;11.40;99.90;;;;;;5032067;28;20447;-73
2023/05/01 02:22:36;;;;;;;7.03;3.10;;;11.40;99.90;;;;;;5030968;28;20033;-73
2023/05/01 02:25:03;;;;;;;9.30;3.53;;;11.40;99.90;;;;;;5033285;28;20022;-73
2023/05/01 02:27:36;;;;;;;8.30;3.47;;;11.40;99.90;;;;;;5032311;28;20183;-72
2023/05/01 02:30:04;;;;;;;9.05;3.95;;;11.40;99.90;;;;;;5031298;28;20041;-73
2023/05/01 02:32:30;;;;;;;11.68;5.18;;;11.30;99.90;;;;;;5032028;28;20044;-76
2023/05/01 02:34:56;;;;;;;11.60;4.80;;;11.30;99.90;;;;;;5036003;28;20025;-73
2023/05/01 02:37:22;;;;;;;10.20;4.28;;;11.30;99.90;;;;;;5040760;28;20032;-73
2023/05/01 02:39:48;;;;;;;10.48;4.07;;;11.30;99.90;;;;;;5039501;28;20037;-75
2023/05/01 02:42:15;;;;;;;7.38;3.78;;;11.20;99.90;;;;;;5033258;28;20033;-71
2023/05/01 02:45:05;;;;;;;7.25;3.42;;;11.20;99.90;;;;;;5039035;28;20105;-72
2023/05/01 02:47:35;;;;;;;9.30;3.75;;;11.20;99.90;;;;;;5031705;28;20707;-73
2023/05/01 02:50:02;;;;;;;9.25;3.55;;;11.20;99.90;;;;;;5035558;28;20033;-72
2023/05/01 02:52:28;;;;;;;7.53;3.33;;;11.20;99.90;;;;;;5037074;28;20037;-72
2023/05/01 02:54:55;;;;;;;8.43;3.63;;;11.20;99.90;;;;;;5037051;28;20037;-74
2023/05/01 02:57:21;;;;;;;9.98;3.90;;;11.10;99.90;;;;;;5035353;28;20022;-72
2023/05/01 02:59:46;;;;;;;8.40;3.33;;;11.10;99.90;;;;;;5037717;28;20044;-72
2023/05/01 03:02:12;;;;;;;7.25;3.22;;;11.10;99.90;;;;;;5037462;28;20029;-75
2023/05/01 03:04:38;;;;;;;11.05;3.92;;;11.00;99.90;;;;;;5037552;28;20037;-72
2023/05/01 03:07:03;;;;;;;10.05;4.15;;;11.00;99.90;;;;;;5037671;28;20048;-75
2023/05/01 03:09:30;;;;;;;8.75;3.80;;;11.00;99.90;;;;;;5037918;28;20044;-76
2023/05/01 03:11:56;;;;;;;8.88;3.83;;;11.00;99.90;;;;;;5038008;28;20032;-72
2023/05/01 03:14:22;;;;;;;8.98;3.55;;;11.00;99.90;;;;;;5037987;28;20033;-73
2023/05/01 03:16:48;;;;;;;9.25;3.63;;;11.00;99.90;;;;;;5038315;28;20434;-72
2023/05/01 03:19:13;;;;;;;7.20;3.80;;;11.00;99.90;;;;;;5038810;28;20623;-72
2023/05/01 03:21:39;;;;;;;8.90;3.40;;;10.90;99.90;;;;;;5038274;28;20033;-73
2023/05/01 03:24:05;;;;;;;8.48;4.15;;;10.90;99.90;;;;;;5038699;28;20127;-72
2023/05/01 03:26:31;;;;;;;7.85;4.03;;;10.90;99.90;;;;;;5032557;28;20079;-75
2023/05/01 03:28:57;;;;;;;8.38;3.92;;;10.90;99.90;;;;;;5038276;28;20140;-72
2023/05/01 03:31:23;;;;;;;13.18;4.15;;;10.90;99.90;;;;;;5037976;28;20104;-72
2023/05/01 03:33:48;;;;;;;11.35;3.83;;;10.90;99.90;;;;;;5037447;28;20049;-72
2023/05/01 03:36:15;;;;;;;9.52;3.60;;;10.90;99.90;;;;;;5037209;28;20551;-76
2023/05/01 03:38:41;;;;;;;11.60;4.65;;;10.90;99.90;;;;;;5037423;28;20469;-72
2023/05/01 03:41:07;;;;;;;13.40;3.85;;;10.90;99.90;;;;;;5039155;28;20033;-74
2023/05/01 03:43:32;;;;;;;9.02;3.90;;;10.90;99.90;;;;;;5036630;28;20428;-73
2023/05/01 03:45:58;;;;;;;10.13;4.18;;;10.90;99.90;;;;;;5032850;28;20025;-73
2023/05/01 03:48:24;;;;;;;11.95;3.85;;;10.90;99.90;;;;;;5036660;28;20040;-72
2023/05/01 03:50:52;;;;;;;10.02;3.40;;;10.90;99.90;;;;;;5033700;28;20033;-72
2023/05/01 03:53:18;;;;;;;7.95;3.88;;;10.90;99.90;;;;;;5036336;28;20136;-72
2023/05/01 03:55:44;;;;;;;10.00;4.20;;;10.90;99.90;;;;;;5050206;28;20108;-73
2023/05/01 03:58:09;;;;;;;7.47;3.70;;;10.90;99.90;;;;;;5042380;28;20041;-72
2023/05/01 04:00:36;;;;;;;9.02;3.42;;;10.90;99.90;;;;;;5043157;28;20382;-73
2023/05/01 04:03:02;;;;;;;6.78;3.42;;;10.90;99.90;;;;;;5049687;28;20032;-72
2023/05/01 04:05:28;;;;;;;9.23;3.80;;;10.90;99.90;;;;;;5038033;28;20028;-73
2023/05/01 04:07:54;;;;;;;10.13;3.78;;;10.90;99.90;;;;;;5048772;28;20378;-72
2023/05/01 04:10:20;;;;;;;10.18;4.45;;;10.90;99.90;;;;;;5043513;28;20058;-72
2023/05/01 04:12:45;;;;;;;13.13;4.53;;;10.90;99.90;;;;;;5041473;28;20045;-72
2023/05/01 04:15:11;;;;;;;11.18;4.50;;;10.90;99.90;;;;;;5050692;28;20040;-72
2023/05/01 04:17:37;;;;;;;11.30;4.32;;;10.90;99.90;;;;;;5037813;28;20028;-72
2023/05/01 04:20:05;;;;;;;14.30;5.45;;;10.90;99.90;;;;;;5043892;28;20029;-72
2023/05/01 04:22:30;;;;;;;8.73;4.32;;;10.90;99.90;;;;;;5033296;28;20021;-74
2023/05/01 04:24:56;;;;;;;12.63;4.45;;;10.80;99.90;;;;;;5033817;28;20041;-71
2023/05/01 04:27:22;;;;;;;10.80;4.93;;;10.80;99.90;;;;;;5048715;28;20417;-72
2023/05/01 04:29:47;;;;;;;11.25;4.22;;;10.80;99.90;;;;;;5032346;28;20072;-72
2023/05/01 04:32:13;;;;;;;10.30;4.10;;;10.80;99.90;;;;;;5019772;28;20034;-73
2023/05/01 04:34:38;;;;;;;11.05;4.20;;;10.80;99.90;;;;;;5044018;28;20033;-73
2023/05/01 04:37:06;;;;;;;10.32;4.20;;;10.80;99.90;;;;;;5041899;28;20084;-72
2023/05/01 04:39:32;;;;;;;10.65;4.47;;;10.90;99.90;;;;;;5032677;28;20159;-72
2023/05/01 04:41:57;;;;;;;11.98;4.22;;;10.90;99.90;;;;;;5047270;28;20071;-74
2023/05/01 04:44:23;;;;;;;17.02;6.03;;;10.90;99.90;;;;;;5053341;28;20021;-74
2023/05/01 04:46:49;;;;;;;7.60;3.90;;;11.00;99.90;;;;;;5041473;28;20499;-72
2023/05/01 04:49:15;;;;;;;14.02;4.60;;;11.10;99.90;;;;;;5049487;28;20111;-74
2023/05/01 04:51:40;;;;;;;12.80;4.38;;;11.10;99.90;;;;;;5037122;28;20037;-72
2023/05/01 04:54:06;;;;;;;9.93;3.97;;;11.20;99.90;;;;;;5053431;28;20397;-74
2023/05/01 04:56:31;;;;;;;11.90;4.10;;;11.30;99.90;;;;;;5043677;28;20108;-72
2023/05/01 04:58:57;;;;;;;12.60;4.57;;;11.50;99.90;;;;;;5045361;28;20098;-73
2023/05/01 05:01:23;;;;;;;13.73;4.72;;;11.60;99.90;;;;;;5033970;28;20052;-72
2023/05/01 05:03:48;;;;;;;10.57;4.22;;;11.70;99.90;;;;;;5046992;28;20047;-71
2023/05/01 05:06:14;;;;;;;12.40;4.70;;;11.80;99.90;;;;;;5045554;28;20034;-71
2023/05/01 05:08:39;;;;;;;14.13;4.55;;;11.90;99.90;;;;;;5044205;28;20025;-72
2023/05/01 05:11:05;;;;;;;11.80;4.25;;;12.00;99.90;;;;;;5038898;28;20045;-71
2023/05/01 05:13:30;;;;;;;15.10;4.57;;;12.10;99.90;;;;;;5049676;28;20041;-72
2023/05/01 05:15:56;;;;;;;12.15;4.60;;;12.20;99.90;;;;;;5038070;28;20033;-71
2023/05/01 05:18:21;;;;;;;12.23;4.70;;;12.30;99.90;;;;;;5044813;28;20029;-71
2023/05/01 05:20:47;;;;;;;13.40;4.47;;;12.40;99.90;;;;;;5044702;28;20025;-72
2023/05/01 05:23:12;;;;;;;8.70;4.30;;;12.40;99.90;;;;;;5037657;28;20025;-73
2023/05/01 05:25:38;;;;;;;9.23;4.28;;;12.50;99.90;;;;;;5049366;28;20036;-72
2023/05/01 05:28:04;;;;;;;10.55;4.40;;;12.60;99.90;;;;;;5038743;28;20041;-72
2023/05/01 05:30:29;;;;;;;11.88;4.75;;;12.60;99.90;;;;;;5043391;28;20037;-73
2023/05/01 05:32:55;;;;;;;12.77;4.05;;;12.70;99.90;;;;;;5037975;28;20080;-73
2023/05/01 05:35:21;;;;;;;10.65;4.30;;;12.70;99.90;;;;;;5049114;28;20055;-73
2023/05/01 05:37:46;;;;;;;11.02;4.38;;;12.70;99.90;;;;;;5036427;28;20090;-77
2023/05/01 05:40:12;;;;;;;12.65;4.50;;;12.80;99.90;;;;;;5045487;28;20030;-76
2023/05/01 05:42:38;;;;;;;11.60;4.57;;;12.80;99.90;;;;;;5043379;28;20040;-75
2023/05/01 05:45:05;;;;;;;10.35;4.60;;;12.80;99.90;;;;;;5038203;28;20029;-73
2023/05/01 05:47:30;;;;;;;10.63;4.68;;;12.90;99.90;;;;;;5049160;28;20066;-74
2023/05/01 05:49:56;;;;;;;15.18;4.78;;;13.00;99.90;;;;;;5037297;28;20457;-72
2023/05/01 05:52:21;;;;;;;10.30;4.30;;;13.00;99.90;;;;;;5044232;28;20412;-74
2023/05/01 05:54:47;;;;;;;12.85;4.60;;;13.10;99.90;;;;;;5044845;28;20029;-72
2023/05/01 05:57:13;;;;;;;11.05;3.90;;;13.20;99.90;;;;;;5052310;28;20029;-75
2023/05/01 05:59:38;;;;;;;11.23;4.43;;;13.20;99.90;;;;;;5051067;28;20021;-75
2023/05/01 06:02:04;;;;;;;14.45;4.00;;;13.30;99.90;;;;;;5031860;28;20417;-76
2023/05/01 06:04:30;;;;;;;11.07;4.68;;;13.30;99.90;;;;;;5031768;28;20444;-73
2023/05/01 06:06:57;;;;;;;13.00;4.30;;;13.40;99.90;;;;;;5032379;28;20025;-77
2023/05/01 06:09:23;;;;;;;13.00;4.43;;;13.40;99.90;;;;;;5031998;28;20500;-75
2023/05/01 06:11:48;;;;;;;10.75;4.40;;;13.50;99.90;;;;;;5031882;28;20025;-76
2023/05/01 06:14:15;;;;;;;12.75;4.47;;;13.50;99.90;;;;;;5031597;28;20040;-73
2023/05/01 06:16:41;;;;;;;11.32;4.55;;;13.50;99.90;;;;;;5032438;28;20018;-74
2023/05/01 06:19:09;;;;;;;11.30;3.70;;;13.60;99.90;;;;;;5032139;28;20037;-72
2023/05/01 06:21:34;;;;;;;9.75;4.05;;;13.60;99.90;;;;;;5030613;28;20474;-75
2023/05/01 06:24:00;;;;;;;12.38;4.20;;;13.70;99.90;;;;;;5032455;28;20033;-77
2023/05/01 06:26:26;;;;;;;10.57;4.75;;;13.80;99.90;;;;;;5031133;28;20030;-73
2023/05/01 06:28:53;;;;;;;8.65;4.28;;;13.80;99.90;;;;;;5045029;28;20045;-74
2023/05/01 06:31:19;;;;;;;10.45;4.25;;;13.90;99.90;;;;;;5034498;28;20033;-77
2023/05/01 06:33:44;;;;;;;13.77;3.67;;;13.90;99.90;;;;;;5050202;28;20081;-73
2023/05/01 06:36:10;;;;;;;12.65;4.63;;;14.00;99.90;;;;;;5046253;28;20037;-76
2023/05/01 06:38:35;;;;;;;13.75;3.90;;;14.00;99.90;;;;;;5031362;28;20054;-74
2023/05/01 06:41:01;;;;;;;9.40;3.83;;;14.10;99.90;;;;;;5030540;28;20038;-76
2023/05/01 06:43:29;;;;;;;13.40;4.10;;;14.20;99.90;;;;;;5031432;28;20466;-75
2023/05/01 06:45:58;;;;;;;14.52;4.70;;;14.30;99.90;;;;;;5031238;28;20029;-76
2023/05/01 06:48:23;;;;;;;13.68;4.18;;;14.40;99.90;;;;;;5031733;28;20028;-73
2023/05/01 06:50:49;;;;;;;11.85;3.65;;;14.50;99.90;;;;;;5030886;28;20025;-75
2023/05/01 06:53:14;;;;;;;14.27;4.32;;;14.60;99.90;;;;;;5031734;28;20440;-75
2023/05/01 06:55:40;;;;;;;14.15;5.07;;;14.70;99.90;;;;;;5032416;28;20072;-74
2023/05/01 06:58:05;;;;;;;12.85;4.78;;;14.80;99.90;;;;;;5032036;28;20044;-73
2023/05/01 07:00:32;;;;;;;17.10;5.25;;;14.90;99.90;;;;;;5029899;28;20393;-77
2023/05/01 07:02:58;;;;;;;11.73;4.47;;;15.00;99.90;;;;;;5046694;28;20556;-76
2023/05/01 07:05:24;;;;;;;16.88;4.90;;;15.20;99.90;;;;;;5051745;28;20104;-75
2023/05/01 07:07:49;;;;;;;16.73;4.80;;;15.30;99.90;;;;;;5051591;28;20032;-77
2023/05/01 07:10:16;;;;;;;15.20;4.20;;;15.40;99.90;;;;;;5046573;28;20030;-75
2023/05/01 07:12:42;;;;;;;16.33;5.10;;;15.60;99.90;;;;;;5034024;28;20408;-74
2023/05/01 07:15:08;;;;;;;17.38;4.68;;;15.70;99.90;;;;;;5049144;28;20043;-73
2023/05/01 07:17:34;;;;;;;17.70;4.38;;;15.80;99.90;;;;;;5031279;28;20108;-76
2023/05/01 07:20:00;;;;;;;14.15;4.60;;;15.90;99.90;;;;;;5031405;28;20109;-72
2023/05/01 07:22:27;;;;;;;14.57;4.10;;;16.10;99.90;;;;;;5034422;28;20017;-74
2023/05/01 07:24:53;;;;;;;13.18;4.15;;;16.20;99.90;;;;;;5031450;28;20018;-75
2023/05/01 07:27:19;;;;;;;19.15;4.72;;;16.40;99.90;;;;;;5033371;28;20103;-75
2023/05/01 07:29:44;;;;;;;13.65;4.57;;;16.60;99.60;;;;;;5034836;28;20033;-73
2023/05/01 07:32:10;;;;;;;34.47;6.05;;;16.70;99.50;;;;;;5034413;28;20380;-75
2023/05/01 07:34:36;;;;;;;20.23;5.35;;;16.90;99.20;;;;;;5034132;28;20041;-73
2023/05/01 07:37:03;;;;;;;27.20;5.82;;;17.10;98.70;;;;;;5033449;28;20041;-71
2023/05/01 07:39:30;;;;;;;17.17;4.78;;;17.20;98.60;;;;;;5031229;28;20712;-74
2023/05/01 07:41:58;;;;;;;9.93;4.20;;;17.40;98.60;;;;;;5033505;28;20029;-73
2023/05/01 07:44:24;;;;;;;16.95;4.88;;;17.60;98.20;;;;;;5033116;28;20029;-73
2023/05/01 07:46:49;;;;;;;83.50;9.55;;;17.70;97.80;;;;;;5033719;28;20036;-73
2023/05/01 07:49:15;;;;;;;16.15;4.55;;;17.80;97.60;;;;;;5034476;28;20056;-72
2023/05/01 07:51:41;;;;;;;22.75;6.20;;;17.90;97.30;;;;;;5032890;28;20112;-71
2023/05/01 07:54:07;;;;;;;79.53;11.40;;;17.90;96.90;;;;;;5041244;28;20040;-72
2023/05/01 07:56:33;;;;;;;62.88;8.73;;;18.00;96.90;;;;;;5033258;28;20409;-73
2023/05/01 07:58:58;;;;;;;19.40;5.25;;;18.10;96.70;;;;;;5034049;28;20025;-72
2023/05/01 08:01:24;;;;;;;16.13;6.65;;;18.20;97.10;;;;;;5039623;28;20068;-74
2023/05/01 08:03:50;;;;;;;14.07;5.15;;;18.30;96.90;;;;;;5039779;28;20083;-72
2023/05/01 08:06:15;;;;;;;17.63;5.93;;;18.30;96.70;;;;;;5044631;28;20040;-71
2023/05/01 08:08:41;;;;;;;18.40;7.75;;;18.40;96.50;;;;;;5040430;28;20021;-73
2023/05/01 08:11:07;;;;;;;11.88;4.05;;;18.50;96.50;;;;;;5037867;28;20025;-73
2023/05/01 08:13:33;;;;;;;17.83;6.07;;;18.70;96.10;;;;;;5016626;28;20044;-72
2023/05/01 08:16:02;;;;;;;13.77;4.60;;;18.90;95.90;;;;;;5026364;28;20488;-73
2023/05/01 08:18:29;;;;;;;15.45;4.43;;;19.10;95.40;;;;;;5017919;28;20545;-75
2023/05/01 08:20:54;;;;;;;21.05;8.00;;;19.30;94.90;;;;;;5029216;28;20041;-72
2023/05/01 08:23:20;;;;;;;14.95;6.25;;;19.50;95.30;;;;;;5033659;28;20044;-72
2023/05/01 08:25:45;;;;;;;12.20;5.32;;;19.70;95.00;;;;;;5032353;28;20041;-72
2023/05/01 08:28:13;;;;;;;16.33;5.60;;;19.90;94.90;;;;;;5032341;28;20413;-72
2023/05/01 08:30:39;;;;;;;16.67;4.43;;;20.10;94.70;;;;;;5027913;28;20029;-72
2023/05/01 08:33:04;;;;;;;17.15;6.25;;;20.20;94.60;;;;;;5033549;28;20056;-72
2023/05/01 08:35:30;;;;;;;13.13;4.95;;;20.40;94.60;;;;;;5029133;28;20032;-74
2023/05/01 08:37:57;;;;;;;16.70;6.70;;;20.60;94.60;;;;;;5026960;28;20034;-74
2023/05/01 08:40:24;;;;;;;10.18;4.30;;;20.80;94.20;;;;;;5013618;28;20033;-75
2023/05/01 08:42:50;;;;;;;13.65;5.35;;;21.00;93.40;;;;;;5013686;28;20065;-72
2023/05/01 08:45:20;;;;;;;9.65;4.15;;;21.10;93.40;;;;;;5014578;28;20044;-72
2023/05/01 08:47:48;;;;;;;11.95;5.10;;;21.30;93.10;;;;;;5018307;28;20378;-73
2023/05/01 08:50:16;;;;;;;15.45;6.50;;;21.40;93.50;;;;;;5014641;28;20026;-73
2023/05/01 08:52:42;;;;;;;13.13;5.70;;;21.70;92.90;;;;;;5014784;28;20496;-72
2023/05/01 08:55:14;;;;;;;10.98;4.80;;;22.00;92.40;;;;;;5017337;28;20328;-74
2023/05/01 08:57:45;;;;;;;12.65;6.07;;;22.20;92.20;;;;;;5030653;28;20470;-73
2023/05/01 09:00:16;;;;;;;13.15;4.10;;;22.40;91.70;;;;;;5039217;28;20091;-76
2023/05/01 09:02:45;;;;;;;17.08;5.38;;;22.50;91.60;;;;;;5037454;28;20377;-74
2023/05/01 09:05:12;;;;;;;15.40;6.88;;;22.50;91.40;;;;;;5037566;28;20432;-73
2023/05/01 09:07:38;;;;;;;13.02;4.95;;;22.40;91.20;;;;;;5038606;28;20489;-73
2023/05/01 09:10:04;;;;;;;13.80;5.10;;;22.30;90.70;;;;;;5033040;28;20075;-73
2023/05/01 09:12:34;;;;;;;15.73;4.38;;;22.20;90.40;;;;;;5030610;28;20444;-75
2023/05/01 09:15:03;;;;;;;14.20;4.75;;;22.00;90.30;;;;;;5035784;28;20029;-73
2023/05/01 09:17:30;;;;;;;13.48;5.18;;;22.00;90.00;;;;;;5040752;28;20033;-74
2023/05/01 09:19:56;;;;;;;17.08;6.45;;;21.90;90.00;;;;;;5048755;28;20060;-74
2023/05/01 09:22:22;;;;;;;18.17;6.47;;;22.00;89.40;;;;;;5034574;28;20516;-73
2023/05/01 09:24:48;;;;;;;13.10;4.75;;;22.00;89.40;;;;;;5044673;28;20389;-72
2023/05/01 09:27:14;;;;;;;15.68;6.88;;;22.20;89.30;;;;;;5040030;28;20511;-73
2023/05/01 09:29:44;;;;;;;12.48;4.93;;;22.20;88.80;;;;;;5043507;28;20029;-73
2023/05/01 09:32:19;;;;;;;17.45;6.75;;;22.30;88.90;;;;;;5043738;28;20029;-72
2023/05/01 09:34:45;;;;;;;14.43;6.53;;;22.30;89.10;;;;;;5043255;28;20155;-73
2023/05/01 09:37:32;;;;;;;10.45;4.47;;;22.50;85.60;;;;;;5046050;28;20120;-73
2023/05/01 09:40:04;;;;;;;15.23;4.57;;;22.70;84.10;;;;;;5033072;28;20045;-72
2023/05/01 09:42:33;;;;;;;16.17;3.65;;;23.00;83.50;;;;;;5032453;28;20117;-73
2023/05/01 09:45:03;;;;;;;13.25;5.75;;;23.60;81.50;;;;;;5032409;28;20124;-74
2023/05/01 09:47:29;;;;;;;12.43;3.17;;;24.30;80.60;;;;;;5032393;28;20076;-73
2023/05/01 09:49:56;;;;;;;11.07;2.75;;;25.20;79.50;;;;;;5033014;28;20443;-73
2023/05/01 09:52:32;;;;;;;8.43;2.65;;;26.20;75.10;;;;;;5032808;28;20021;-76
2023/05/01 09:55:17;;;;;;;9.70;3.25;;;26.90;72.90;;;;;;5031317;28;20033;-74
2023/05/01 09:57:44;;;;;;;7.22;3.20;;;27.30;71.40;;;;;;5030769;28;20108;-73
2023/05/01 10:00:11;;;;;;;9.48;2.90;;;27.50;70.80;;;;;;5031701;28;20025;-74
2023/05/01 10:02:38;;;;;;;17.40;6.25;;;27.50;69.90;;;;;;5032027;28;20026;-73
2023/05/01 10:05:04;;;;;;;12.48;4.38;;;27.30;70.70;;;;;;5031968;28;20036;-74
2023/05/01 10:07:30;;;;;;;10.80;4.53;;;27.10;71.10;;;;;;5030877;28;20079;-74
2023/05/01 10:09:56;;;;;;;9.20;3.45;;;27.00;70.90;;;;;;5032892;28;20030;-73
2023/05/01 10:12:29;;;;;;;10.98;4.00;;;26.80;70.60;;;;;;5032248;28;20481;-73
2023/05/01 10:14:57;;;;;;;15.38;4.60;;;26.50;71.10;;;;;;5032706;28;20128;-73
2023/05/01 10:17:23;;;;;;;8.63;3.65;;;26.00;72.00;;;;;;5030997;28;20030;-74
2023/05/01 10:19:52;;;;;;;7.82;3.55;;;25.60;73.20;;;;;;5032863;28;20091;-73
2023/05/01 10:22:17;;;;;;;7.75;3.75;;;25.00;74.30;;;;;;5031015;28;20470;-73
2023/05/01 10:24:44;;;;;;;12.63;5.63;;;24.60;76.10;;;;;;5032126;28;20041;-73
2023/05/01 10:27:11;;;;;;;10.05;4.50;;;24.10;77.30;;;;;;5031649;28;20057;-73
2023/05/01 10:29:39;;;;;;;16.10;4.88;;;23.70;78.50;;;;;;5031735;28;20071;-72
2023/05/01 10:32:07;;;;;;;9.88;3.90;;;23.30;79.20;;;;;;5032151;28;20029;-73
2023/05/01 10:34:41;;;;;;;10.77;4.07;;;22.80;77.80;;;;;;5032024;28;20484;-73
2023/05/01 10:37:33;;;;;;;12.98;4.80;;;22.20;78.10;;;;;;5031831;28;20017;-74
2023/05/01 10:39:59;;;;;;;11.35;4.38;;;21.80;80.20;;;;;;5032379;28;20083;-73
2023/05/01 10:42:25;;;;;;;13.57;4.43;;;21.30;80.70;;;;;;5032339;28;20061;-74
2023/05/01 10:44:50;;;;;;;13.55;4.32;;;21.00;81.70;;;;;;5032182;28;20017;-73
2023/05/01 10:47:26;;;;;;;11.90;4.18;;;20.70;83.10;;;;;;5032282;28;20021;-73
2023/05/01 10:50:14;;;;;;;10.68;4.10;;;20.30;84.60;;;;;;5031949;28;20165;-73
2023/05/01 10:53:15;;;;;;;12.52;4.35;;;20.10;86.20;;;;;;5031946;28;20493;-73
2023/05/01 10:55:43;;;;;;;11.30;4.22;;;19.80;89.20;;;;;;5011295;28;20382;-74
2023/05/01 10:58:13;;;;;;;16.48;5.25;;;19.70;90.80;;;;;;5039058;28;20124;-73
2023/05/01 11:00:39;;;;;;;14.63;4.75;;;19.50;91.70;;;;;;5017113;28;20379;-73
2023/05/01 11:03:23;;;;;;;14.55;4.85;;;19.20;92.60;;;;;;5016436;28;20033;-74
2023/05/01 11:06:03;;;;;;;12.75;5.72;;;19.00;93.60;;;;;;5016338;28;20101;-74
2023/05/01 11:08:37;;;;;;;13.15;5.43;;;18.80;94.20;;;;;;5038601;28;20037;-73
2023/05/01 11:11:21;;;;;;;10.68;5.70;;;18.70;94.70;;;;;;5054380;28;20544;-73
2023/05/01 11:14:06;;;;;;;10.35;5.43;;;18.50;96.10;;;;;;5015797;28;20056;-73
2023/05/01 11:16:40;;;;;;;14.32;5.95;;;18.40;97.00;;;;;;5015551;28;20034;-72
2023/05/01 11:19:21;;;;;;;9.77;5.47;;;18.10;98.70;;;;;;5029095;28;20112;-72
2023/05/01 11:21:48;;;;;;;11.45;5.45;;;17.90;99.90;;;;;;5015718;28;20478;-71
2023/05/01 11:24:13;;;;;;;13.77;6.05;;;17.70;99.90;;;;;;5032515;28;20068;-70
2023/05/01 11:26:41;;;;;;;14.25;6.93;;;17.50;99.90;;;;;;5035313;28;20064;-69
2023/05/01 11:29:09;;;;;;;15.07;6.20;;;17.30;99.90;;;;;;5033526;28;20032;-69
2023/05/01 11:31:35;;;;;;;15.10;6.97;;;17.20;99.90;;;;;;5027715;28;20033;-69
2023/05/01 11:34:01;;;;;;;16.33;6.95;;;17.00;99.90;;;;;;5029223;28;20497;-68
2023/05/01 11:36:28;;;;;;;19.73;7.05;;;16.90;99.90;;;;;;5029454;28;20033;-69
2023/05/01 11:38:56;;;;;;;34.65;8.38;;;16.80;99.90;;;;;;5030784;28;20470;-69
2023/05/01 11:41:23;;;;;;;16.80;7.40;;;16.70;99.90;;;;;;5024078;28;20033;-69
2023/05/01 11:43:58;;;;;;;15.82;6.82;;;16.70;99.90;;;;;;5043267;28;20029;-69
2023/05/01 11:46:31;;;;;;;31.92;8.10;;;16.60;99.90;;;;;;5034410;28;20026;-68
2023/05/01 11:48:58;;;;;;;15.98;7.72;;;16.70;99.90;;;;;;5035127;28;20030;-68
2023/05/01 11:51:25;;;;;;;16.98;8.07;;;16.70;99.90;;;;;;5041547;28;20021;-69
2023/05/01 11:54:02;;;;;;;14.80;7.35;;;16.80;99.90;;;;;;5054903;28;20045;-68
2023/05/01 11:56:28;;;;;;;13.98;7.13;;;16.90;99.90;;;;;;5024241;28;20541;-69
2023/05/01 11:58:56;;;;;;;15.70;7.68;;;16.90;99.90;;;;;;5030144;28;20040;-69
2023/05/01 12:01:43;;;;;;;16.17;8.68;;;16.90;99.90;;;;;;5034712;28;20018;-69
2023/05/01 12:04:10;;;;;;;15.52;8.30;;;16.80;99.90;;;;;;5034663;28;20033;-70
2023/05/01 12:06:39;;;;;;;15.30;7.90;;;16.80;99.90;;;;;;5048254;28;20033;-70
2023/05/01 12:09:07;;;;;;;17.58;8.35;;;16.80;99.90;;;;;;5051699;28;20033;-69
2023/05/01 12:11:34;;;;;;;18.90;8.65;;;16.80;99.90;;;;;;5019677;28;20037;-70
2023/05/01 12:13:59;;;;;;;18.60;9.45;;;16.90;99.90;;;;;;5029521;28;20041;-70
2023/05/01 12:16:27;;;;;;;21.55;10.98;;;17.10;99.90;;;;;;5034717;28;20029;-70
2023/05/01 12:18:52;;;;;;;22.60;10.43;;;17.30;99.90;;;;;;5034342;28;20032;-69
2023/05/01 12:21:18;;;;;;;21.77;10.68;;;17.60;99.90;;;;;;5034517;28;20026;-69
2023/05/01 12:23:44;;;;;;;20.85;10.85;;;17.80;99.90;;;;;;5034070;28;20033;-71
2023/05/01 12:26:24;;;;;;;21.02;10.00;;;18.10;99.90;;;;;;5034200;28;20041;-70
2023/05/01 12:28:57;;;;;;;21.33;9.85;;;18.50;99.90;;;;;;5033668;28;20100;-71
2023/05/01 12:31:23;;;;;;;19.35;9.35;;;18.90;99.90;;;;;;5033933;28;20025;-71
2023/05/01 12:34:15;;;;;;;17.75;9.07;;;19.50;99.90;;;;;;5036416;28;20458;-71
2023/05/01 12:36:51;;;;;;;17.63;8.45;;;20.30;99.90;;;;;;5031090;28;20048;-72
2023/05/01 12:39:16;;;;;;;17.85;9.02;;;21.20;99.90;;;;;;5032206;28;20041;-72
2023/05/01 12:41:46;;;;;;;16.33;8.95;;;22.00;99.90;;;;;;5034412;28;20075;-72
2023/05/01 12:44:23;;;;;;;18.00;9.02;;;22.80;99.50;;;;;;5032307;28;20061;-73